sensor_id;sensor_type;location;lat;lon;timestamp;pressure;altitude;pressure_sealevel;temperature;humidity
26489;BME280;14169;43.684;10.484;2022-12-18T00:00:28;102352.06;;;9.15;100.00
26489;BME280;14169;43.684;10.484;2022-12-18T00:02:53;102339.09;;;9.12;100.00
26489;BME280;14169;43.684;10.484;2022-12-18T00:05:18;102344.28;;;9.12;100.00
26489;BME280;14169;43.684;10.484;2022-12-18T00:07:44;102345.16;;;9.08;100.00
26489;BME280;14169;43.684;10.484;2022-12-18T00:10:09;102348.63;;;9.05;100.00
26489;BME280;14169;43.684;10.484;2022-12-18T00:12:35;102358.09;;;8.99;100.00
26489;BME280;14169;43.684;10.484;2022-12-18T00:15:00;102360.69;;;8.94;100.00
26489;BME280;14169;43.684;10.484;2022-12-18T00:17:25;102367.63;;;8.91;100.00
26489;BME280;14169;43.684;10.484;2022-12-18T00:19:51;102367.63;;;8.98;100.00
26489;BME280;14169;43.684;10.484;2022-12-18T00:22:16;102373.75;;;9.02;100.00
26489;BME280;14169;43.684;10.484;2022-12-18T00:24:43;102374.59;;;9.05;100.00
26489;BME280;14169;43.684;10.484;2022-12-18T00:27:08;102385.03;;;9.10;100.00
26489;BME280;14169;43.684;10.484;2022-12-18T00:29:34;102379.78;;;9.14;100.00
26489;BME280;14169;43.684;10.484;2022-12-18T00:31:59;102381.53;;;9.17;100.00
26489;BME280;14169;43.684;10.484;2022-12-18T00:34:24;102377.22;;;9.19;100.00
26489;BME280;14169;43.684;10.484;2022-12-18T00:36:50;102387.59;;;9.20;100.00
26489;BME280;14169;43.684;10.484;2022-12-18T00:39:15;102386.72;;;9.18;100.00
26489;BME280;14169;43.684;10.484;2022-12-18T00:41:41;102391.94;;;9.17;100.00
26489;BME280;14169;43.684;10.484;2022-12-18T00:44:25;102399.75;;;9.17;100.00
26489;BME280;14169;43.684;10.484;2022-12-18T00:46:50;102402.34;;;9.18;100.00
26489;BME280;14169;43.684;10.484;2022-12-18T00:49:17;102410.13;;;9.17;100.00
26489;BME280;14169;43.684;10.484;2022-12-18T00:51:43;102415.34;;;9.14;100.00
26489;BME280;14169;43.684;10.484;2022-12-18T00:54:09;102407.53;;;9.12;100.00
26489;BME280;14169;43.684;10.484;2022-12-18T00:56:37;102417.06;;;9.09;100.00
26489;BME280;14169;43.684;10.484;2022-12-18T00:59:02;102423.16;;;9.08;100.00
26489;BME280;14169;43.684;10.484;2022-12-18T01:01:28;102426.56;;;9.02;100.00
26489;BME280;14169;43.684;10.484;2022-12-18T01:03:53;102441.28;;;8.99;100.00
26489;BME280;14169;43.684;10.484;2022-12-18T01:06:19;102437.84;;;9.03;100.00
26489;BME280;14169;43.684;10.484;2022-12-18T01:08:45;102435.25;;;9.09;100.00
26489;BME280;14169;43.684;10.484;2022-12-18T01:11:18;102439.59;;;9.13;100.00
26489;BME280;14169;43.684;10.484;2022-12-18T01:13:44;102437.00;;;9.14;100.00
26489;BME280;14169;43.684;10.484;2022-12-18T01:16:15;102430.94;;;9.12;100.00
26489;BME280;14169;43.684;10.484;2022-12-18T01:18:41;102428.34;;;9.14;100.00
26489;BME280;14169;43.684;10.484;2022-12-18T01:21:13;102425.75;;;9.09;100.00
26489;BME280;14169;43.684;10.484;2022-12-18T01:23:38;102436.97;;;9.08;100.00
26489;BME280;14169;43.684;10.484;2022-12-18T01:26:10;102441.34;;;9.11;100.00
26489;BME280;14169;43.684;10.484;2022-12-18T01:28:36;102443.94;;;9.15;100.00
26489;BME280;14169;43.684;10.484;2022-12-18T01:31:18;102443.94;;;9.14;100.00
26489;BME280;14169;43.684;10.484;2022-12-18T01:33:45;102441.34;;;9.14;100.00
26489;BME280;14169;43.684;10.484;2022-12-18T01:36:21;102451.72;;;9.11;100.00
26489;BME280;14169;43.684;10.484;2022-12-18T01:38:49;102453.47;;;9.12;100.00
26489;BME280;14169;43.684;10.484;2022-12-18T01:41:16;102451.72;;;9.06;100.00
26489;BME280;14169;43.684;10.484;2022-12-18T01:46:07;102451.69;;;9.00;100.00
26489;BME280;14169;43.684;10.484;2022-12-18T01:48:32;102462.09;;;9.00;100.00
26489;BME280;14169;43.684;10.484;2022-12-18T01:50:58;102460.38;;;9.01;100.00
26489;BME280;14169;43.684;10.484;2022-12-18T01:53:25;102462.06;;;8.99;100.00
26489;BME280;14169;43.684;10.484;2022-12-18T01:55:55;102470.75;;;8.99;100.00
26489;BME280;14169;43.684;10.484;2022-12-18T01:58:58;102482.06;;;9.00;100.00
26489;BME280;14169;43.684;10.484;2022-12-18T02:01:26;102481.19;;;9.04;100.00
26489;BME280;14169;43.684;10.484;2022-12-18T02:03:52;102486.38;;;9.04;100.00
26489;BME280;14169;43.684;10.484;2022-12-18T02:06:31;102492.44;;;9.01;100.00
26489;BME280;14169;43.684;10.484;2022-12-18T02:11:40;102493.25;;;8.90;100.00
26489;BME280;14169;43.684;10.484;2022-12-18T02:19:20;102492.38;;;8.88;100.00
26489;BME280;14169;43.684;10.484;2022-12-18T02:22:03;102489.78;;;8.91;100.00
26489;BME280;14169;43.684;10.484;2022-12-18T02:24:47;102489.78;;;8.89;100.00
26489;BME280;14169;43.684;10.484;2022-12-18T02:27:17;102492.34;;;8.86;100.00
26489;BME280;14169;43.684;10.484;2022-12-18T02:29:51;102494.97;;;8.88;100.00
26489;BME280;14169;43.684;10.484;2022-12-18T02:32:22;102490.63;;;8.87;100.00
26489;BME280;14169;43.684;10.484;2022-12-18T02:34:51;102490.63;;;8.85;100.00
26489;BME280;14169;43.684;10.484;2022-12-18T02:37:19;102488.88;;;8.83;100.00
26489;BME280;14169;43.684;10.484;2022-12-18T02:39:47;102497.53;;;8.79;100.00
26489;BME280;14169;43.684;10.484;2022-12-18T02:42:15;102501.88;;;8.81;100.00
26489;BME280;14169;43.684;10.484;2022-12-18T02:44:46;102514.03;;;8.84;100.00
26489;BME280;14169;43.684;10.484;2022-12-18T02:47:13;102524.38;;;8.79;100.00
26489;BME280;14169;43.684;10.484;2022-12-18T02:49:58;102527.84;;;8.75;100.00
26489;BME280;14169;43.684;10.484;2022-12-18T03:00:36;102537.34;;;8.72;100.00
26489;BME280;14169;43.684;10.484;2022-12-18T03:05:40;102547.78;;;8.78;100.00
26489;BME280;14169;43.684;10.484;2022-12-18T03:08:20;102555.53;;;8.75;100.00
26489;BME280;14169;43.684;10.484;2022-12-18T03:10:54;102556.41;;;8.75;100.00
26489;BME280;14169;43.684;10.484;2022-12-18T03:13:27;102572.00;;;8.75;100.00
26489;BME280;14169;43.684;10.484;2022-12-18T03:15:55;102568.56;;;8.78;100.00
26489;BME280;14169;43.684;10.484;2022-12-18T03:18:25;102567.69;;;8.79;100.00
26489;BME280;14169;43.684;10.484;2022-12-18T03:20:55;102575.44;;;8.74;100.00
26489;BME280;14169;43.684;10.484;2022-12-18T03:23:27;102580.59;;;8.65;100.00
26489;BME280;14169;43.684;10.484;2022-12-18T03:25:55;102590.97;;;8.59;100.00
26489;BME280;14169;43.684;10.484;2022-12-18T03:28:22;102587.44;;;8.53;100.00
26489;BME280;14169;43.684;10.484;2022-12-18T03:30:56;102585.69;;;8.46;100.00
26489;BME280;14169;43.684;10.484;2022-12-18T03:33:31;102581.34;;;8.42;100.00
26489;BME280;14169;43.684;10.484;2022-12-18T03:36:00;102591.72;;;8.42;100.00
26489;BME280;14169;43.684;10.484;2022-12-18T03:38:25;102585.66;;;8.41;100.00
26489;BME280;14169;43.684;10.484;2022-12-18T03:43:51;102584.00;;;8.55;100.00
26489;BME280;14169;43.684;10.484;2022-12-18T03:46:26;102577.13;;;8.62;100.00
26489;BME280;14169;43.684;10.484;2022-12-18T03:49:02;102569.34;;;8.62;100.00
26489;BME280;14169;43.684;10.484;2022-12-18T03:51:48;102577.13;;;8.62;100.00
26489;BME280;14169;43.684;10.484;2022-12-18T03:54:16;102579.69;;;8.56;100.00
26489;BME280;14169;43.684;10.484;2022-12-18T03:56:46;102579.66;;;8.53;100.00
26489;BME280;14169;43.684;10.484;2022-12-18T03:59:15;102589.16;;;8.49;100.00
26489;BME280;14169;43.684;10.484;2022-12-18T04:01:46;102585.69;;;8.49;100.00
26489;BME280;14169;43.684;10.484;2022-12-18T04:04:13;102591.75;;;8.48;100.00
26489;BME280;14169;43.684;10.484;2022-12-18T04:06:41;102583.94;;;8.45;100.00
26489;BME280;14169;43.684;10.484;2022-12-18T04:09:08;102587.38;;;8.39;100.00
26489;BME280;14169;43.684;10.484;2022-12-18T04:11:34;102583.88;;;8.35;100.00
26489;BME280;14169;43.684;10.484;2022-12-18T04:13:59;102589.94;;;8.34;100.00
26489;BME280;14169;43.684;10.484;2022-12-18T04:16:28;102586.44;;;8.31;100.00
26489;BME280;14169;43.684;10.484;2022-12-18T04:18:54;102577.84;;;8.38;100.00
26489;BME280;14169;43.684;10.484;2022-12-18T04:21:20;102584.81;;;8.44;100.00
26489;BME280;14169;43.684;10.484;2022-12-18T04:23:45;102576.19;;;8.46;100.00
26489;BME280;14169;43.684;10.484;2022-12-18T04:26:11;102584.00;;;8.52;100.00
26489;BME280;14169;43.684;10.484;2022-12-18T04:28:36;102578.78;;;8.51;100.00
26489;BME280;14169;43.684;10.484;2022-12-18T04:31:02;102580.53;;;8.55;100.00
26489;BME280;14169;43.684;10.484;2022-12-18T04:33:27;102583.13;;;8.56;100.00
26489;BME280;14169;43.684;10.484;2022-12-18T04:35:53;102581.41;;;8.58;100.00
26489;BME280;14169;43.684;10.484;2022-12-18T04:38:18;102591.84;;;8.60;100.00
26489;BME280;14169;43.684;10.484;2022-12-18T04:40:43;102584.06;;;8.61;100.00
26489;BME280;14169;43.684;10.484;2022-12-18T04:43:09;102595.31;;;8.66;100.00
26489;BME280;14169;43.684;10.484;2022-12-18T04:45:35;102596.19;;;8.68;100.00
26489;BME280;14169;43.684;10.484;2022-12-18T04:48:01;102610.06;;;8.67;100.00
26489;BME280;14169;43.684;10.484;2022-12-18T04:50:27;102610.06;;;8.66;100.00
26489;BME280;14169;43.684;10.484;2022-12-18T04:52:53;102618.66;;;8.60;100.00
26489;BME280;14169;43.684;10.484;2022-12-18T04:55:18;102626.44;;;8.59;100.00
26489;BME280;14169;43.684;10.484;2022-12-18T04:57:44;102635.97;;;8.55;100.00
26489;BME280;14169;43.684;10.484;2022-12-18T05:00:10;102640.28;;;8.55;100.00
26489;BME280;14169;43.684;10.484;2022-12-18T05:02:36;102647.19;;;8.53;100.00
26489;BME280;14169;43.684;10.484;2022-12-18T05:05:01;102650.66;;;8.52;100.00
26489;BME280;14169;43.684;10.484;2022-12-18T05:07:27;102654.09;;;8.46;100.00
26489;BME280;14169;43.684;10.484;2022-12-18T05:09:52;102654.06;;;8.45;100.00
26489;BME280;14169;43.684;10.484;2022-12-18T05:12:18;102655.75;;;8.38;100.00
26489;BME280;14169;43.684;10.484;2022-12-18T05:14:43;102660.91;;;8.36;100.00
26489;BME280;14169;43.684;10.484;2022-12-18T05:17:08;102661.75;;;8.31;100.00
26489;BME280;14169;43.684;10.484;2022-12-18T05:19:34;102656.50;;;8.26;100.00
26489;BME280;14169;43.684;10.484;2022-12-18T05:21:59;102663.41;;;8.24;100.00
26489;BME280;14169;43.684;10.484;2022-12-18T05:24:26;102663.41;;;8.24;100.00
26489;BME280;14169;43.684;10.484;2022-12-18T05:26:51;102660.81;;;8.23;100.00
26489;BME280;14169;43.684;10.484;2022-12-18T05:29:17;102671.19;;;8.23;100.00
26489;BME280;14169;43.684;10.484;2022-12-18T05:31:42;102670.31;;;8.22;100.00
26489;BME280;14169;43.684;10.484;2022-12-18T05:34:08;102671.19;;;8.20;100.00
26489;BME280;14169;43.684;10.484;2022-12-18T05:36:33;102672.91;;;8.18;100.00
26489;BME280;14169;43.684;10.484;2022-12-18T05:38:59;102668.53;;;8.17;100.00
26489;BME280;14169;43.684;10.484;2022-12-18T05:41:25;102678.06;;;8.16;100.00
26489;BME280;14169;43.684;10.484;2022-12-18T05:43:51;102674.63;;;8.17;100.00
26489;BME280;14169;43.684;10.484;2022-12-18T05:46:17;102683.25;;;8.16;100.00
26489;BME280;14169;43.684;10.484;2022-12-18T05:48:44;102684.06;;;8.12;100.00
26489;BME280;14169;43.684;10.484;2022-12-18T05:51:12;102678.03;;;8.12;100.00
26489;BME280;14169;43.684;10.484;2022-12-18T05:53:39;102686.72;;;8.14;100.00
26489;BME280;14169;43.684;10.484;2022-12-18T05:56:08;102684.94;;;8.11;100.00
26489;BME280;14169;43.684;10.484;2022-12-18T05:58:34;102700.47;;;8.08;100.00
26489;BME280;14169;43.684;10.484;2022-12-18T06:01:16;102702.94;;;7.96;100.00
26489;BME280;14169;43.684;10.484;2022-12-18T06:03:42;102698.56;;;7.92;100.00
26489;BME280;14169;43.684;10.484;2022-12-18T06:06:26;102702.03;;;7.90;100.00
26489;BME280;14169;43.684;10.484;2022-12-18T06:08:52;102696.84;;;7.88;100.00
26489;BME280;14169;43.684;10.484;2022-12-18T06:11:22;102705.41;;;7.83;100.00
26489;BME280;14169;43.684;10.484;2022-12-18T06:13:55;102712.25;;;7.76;100.00
26489;BME280;14169;43.684;10.484;2022-12-18T06:16:21;102720.88;;;7.72;100.00
26489;BME280;14169;43.684;10.484;2022-12-18T06:18:46;102724.28;;;7.68;100.00
26489;BME280;14169;43.684;10.484;2022-12-18T06:21:12;102727.69;;;7.66;100.00
26489;BME280;14169;43.684;10.484;2022-12-18T06:23:37;102735.41;;;7.63;100.00
26489;BME280;14169;43.684;10.484;2022-12-18T06:26:08;102738.00;;;7.60;100.00
26489;BME280;14169;43.684;10.484;2022-12-18T06:28:34;102743.13;;;7.55;100.00
26489;BME280;14169;43.684;10.484;2022-12-18T06:31:00;102746.53;;;7.52;100.00
26489;BME280;14169;43.684;10.484;2022-12-18T06:33:27;102745.63;;;7.47;100.00
26489;BME280;14169;43.684;10.484;2022-12-18T06:35:53;102755.09;;;7.44;100.00
26489;BME280;14169;43.684;10.484;2022-12-18T06:38:19;102746.34;;;7.39;100.00
26489;BME280;14169;43.684;10.484;2022-12-18T06:40:44;102763.53;;;7.31;100.00
26489;BME280;14169;43.684;10.484;2022-12-18T06:43:09;102765.22;;;7.26;100.00
26489;BME280;14169;43.684;10.484;2022-12-18T06:45:35;102778.09;;;7.23;100.00
26489;BME280;14169;43.684;10.484;2022-12-18T06:48:00;102780.66;;;7.20;100.00
26489;BME280;14169;43.684;10.484;2022-12-18T06:50:26;102788.44;;;7.20;100.00
26489;BME280;14169;43.684;10.484;2022-12-18T06:52:51;102790.97;;;7.17;100.00
26489;BME280;14169;43.684;10.484;2022-12-18T06:55:17;102795.31;;;7.16;100.00
26489;BME280;14169;43.684;10.484;2022-12-18T06:57:42;102797.91;;;7.18;100.00
26489;BME280;14169;43.684;10.484;2022-12-18T07:00:08;102798.81;;;7.21;100.00
26489;BME280;14169;43.684;10.484;2022-12-18T07:02:34;102808.41;;;7.27;100.00
26489;BME280;14169;43.684;10.484;2022-12-18T07:05:00;102810.19;;;7.31;100.00
26489;BME280;14169;43.684;10.484;2022-12-18T07:07:26;102815.47;;;7.38;100.00
26489;BME280;14169;43.684;10.484;2022-12-18T07:09:51;102820.75;;;7.43;100.00
26489;BME280;14169;43.684;10.484;2022-12-18T07:12:17;102827.66;;;7.42;100.00
26489;BME280;14169;43.684;10.484;2022-12-18T07:14:42;102824.22;;;7.45;100.00
26489;BME280;14169;43.684;10.484;2022-12-18T07:17:08;102831.97;;;7.42;100.00
26489;BME280;14169;43.684;10.484;2022-12-18T07:19:33;102831.91;;;7.37;100.00
26489;BME280;14169;43.684;10.484;2022-12-18T07:21:59;102844.91;;;7.40;100.00
26489;BME280;14169;43.684;10.484;2022-12-18T07:24:25;102847.53;;;7.42;100.00
26489;BME280;14169;43.684;10.484;2022-12-18T07:26:50;102852.72;;;7.42;100.00
26489;BME280;14169;43.684;10.484;2022-12-18T07:29:16;102858.84;;;7.47;100.00
26489;BME280;14169;43.684;10.484;2022-12-18T07:31:41;102862.75;;;7.76;100.00
26489;BME280;14169;43.684;10.484;2022-12-18T07:34:14;102868.13;;;7.94;100.00
26489;BME280;14169;43.684;10.484;2022-12-18T07:36:40;102864.72;;;7.98;100.00
26489;BME280;14169;43.684;10.484;2022-12-18T07:39:06;102869.03;;;7.95;100.00
26489;BME280;14169;43.684;10.484;2022-12-18T07:41:32;102875.91;;;7.93;100.00
26489;BME280;14169;43.684;10.484;2022-12-18T07:43:57;102876.28;;;8.23;100.00
26489;BME280;14169;43.684;10.484;2022-12-18T07:46:23;102887.72;;;8.35;100.00
26489;BME280;14169;43.684;10.484;2022-12-18T07:48:48;102886.91;;;8.42;100.00
26489;BME280;14169;43.684;10.484;2022-12-18T07:51:14;102890.25;;;8.31;100.00
26489;BME280;14169;43.684;10.484;2022-12-18T07:53:39;102895.53;;;8.38;100.00
26489;BME280;14169;43.684;10.484;2022-12-18T07:56:10;102897.13;;;8.26;100.00
26489;BME280;14169;43.684;10.484;2022-12-18T07:58:36;102897.16;;;8.30;100.00
26489;BME280;14169;43.684;10.484;2022-12-18T08:01:09;102901.00;;;8.63;100.00
26489;BME280;14169;43.684;10.484;2022-12-18T08:03:36;102892.81;;;9.09;100.00
26489;BME280;14169;43.684;10.484;2022-12-18T08:06:03;102896.56;;;9.44;100.00
26489;BME280;14169;43.684;10.484;2022-12-18T08:08:29;102896.72;;;9.65;100.00
26489;BME280;14169;43.684;10.484;2022-12-18T08:10:55;102901.13;;;9.77;100.00
26489;BME280;14169;43.684;10.484;2022-12-18T08:13:21;102903.75;;;9.78;100.00
26489;BME280;14169;43.684;10.484;2022-12-18T08:15:46;102911.66;;;9.98;100.00
26489;BME280;14169;43.684;10.484;2022-12-18T08:18:20;102927.41;;;10.22;100.00
26489;BME280;14169;43.684;10.484;2022-12-18T08:20:45;102927.50;;;10.37;100.00
26489;BME280;14169;43.684;10.484;2022-12-18T08:23:10;102932.81;;;10.57;100.00
26489;BME280;14169;43.684;10.484;2022-12-18T08:25:36;102945.03;;;10.74;100.00
26489;BME280;14169;43.684;10.484;2022-12-18T08:28:01;102949.41;;;10.87;100.00
26489;BME280;14169;43.684;10.484;2022-12-18T08:30:27;102953.75;;;10.93;100.00
26489;BME280;14169;43.684;10.484;2022-12-18T08:32:52;102959.88;;;11.09;100.00
26489;BME280;14169;43.684;10.484;2022-12-18T08:35:19;102967.72;;;11.28;100.00
26489;BME280;14169;43.684;10.484;2022-12-18T08:37:44;102969.47;;;11.43;100.00
26489;BME280;14169;43.684;10.484;2022-12-18T08:40:10;102970.34;;;11.67;100.00
26489;BME280;14169;43.684;10.484;2022-12-18T08:42:35;102978.16;;;11.82;100.00
26489;BME280;14169;43.684;10.484;2022-12-18T08:45:19;102984.28;;;11.69;100.00
26489;BME280;14169;43.684;10.484;2022-12-18T08:47:44;102987.72;;;11.87;100.00
26489;BME280;14169;43.684;10.484;2022-12-18T08:50:11;102992.97;;;11.99;100.00
26489;BME280;14169;43.684;10.484;2022-12-18T08:52:37;102988.59;;;11.79;100.00
26489;BME280;14169;43.684;10.484;2022-12-18T08:55:03;103002.50;;;11.26;100.00
26489;BME280;14169;43.684;10.484;2022-12-18T08:57:28;102998.06;;;10.88;100.00
26489;BME280;14169;43.684;10.484;2022-12-18T08:59:54;103005.81;;;10.66;100.00
26489;BME280;14169;43.684;10.484;2022-12-18T09:02:19;103002.34;;;10.65;100.00
26489;BME280;14169;43.684;10.484;2022-12-18T09:04:47;103001.66;;;11.25;100.00
26489;BME280;14169;43.684;10.484;2022-12-18T09:07:12;103000.78;;;11.70;100.00
26489;BME280;14169;43.684;10.484;2022-12-18T09:09:38;103000.75;;;12.20;100.00
26489;BME280;14169;43.684;10.484;2022-12-18T09:12:03;103004.16;;;12.49;100.00
26489;BME280;14169;43.684;10.484;2022-12-18T09:14:29;103007.56;;;12.66;100.00
26489;BME280;14169;43.684;10.484;2022-12-18T09:16:54;103008.25;;;13.06;100.00
26489;BME280;14169;43.684;10.484;2022-12-18T09:19:20;103003.69;;;13.39;100.00
26489;BME280;14169;43.684;10.484;2022-12-18T09:21:47;103003.56;;;13.56;100.00
26489;BME280;14169;43.684;10.484;2022-12-18T09:24:16;103001.66;;;13.76;100.00
26489;BME280;14169;43.684;10.484;2022-12-18T09:26:41;103001.53;;;13.88;100.00
26489;BME280;14169;43.684;10.484;2022-12-18T09:29:07;103005.06;;;13.86;100.00
26489;BME280;14169;43.684;10.484;2022-12-18T09:31:33;103003.31;;;13.86;100.00
26489;BME280;14169;43.684;10.484;2022-12-18T09:33:59;103002.41;;;13.87;100.00
26489;BME280;14169;43.684;10.484;2022-12-18T09:36:24;103011.84;;;14.06;100.00
26489;BME280;14169;43.684;10.484;2022-12-18T09:38:50;103014.44;;;14.08;100.00
26489;BME280;14169;43.684;10.484;2022-12-18T09:44:03;103006.94;;;14.58;100.00
26489;BME280;14169;43.684;10.484;2022-12-18T09:46:32;103011.41;;;14.47;100.00
26489;BME280;14169;43.684;10.484;2022-12-18T09:49:00;103012.09;;;14.64;100.00
26489;BME280;14169;43.684;10.484;2022-12-18T09:51:36;103007.50;;;14.83;100.00
26489;BME280;14169;43.684;10.484;2022-12-18T09:54:12;103007.09;;;15.10;100.00
26489;BME280;14169;43.684;10.484;2022-12-18T09:56:41;103014.59;;;15.39;100.00
26489;BME280;14169;43.684;10.484;2022-12-18T09:59:18;103016.25;;;15.44;100.00
26489;BME280;14169;43.684;10.484;2022-12-18T10:01:46;103021.22;;;15.62;100.00
26489;BME280;14169;43.684;10.484;2022-12-18T10:04:11;103026.38;;;15.68;100.00
26489;BME280;14169;43.684;10.484;2022-12-18T10:09:32;103023.00;;;16.09;100.00
26489;BME280;14169;43.684;10.484;2022-12-18T10:12:08;103016.50;;;16.30;100.00
26489;BME280;14169;43.684;10.484;2022-12-18T10:15:01;103025.56;;;16.59;100.00
26489;BME280;14169;43.684;10.484;2022-12-18T10:17:40;103018.66;;;16.95;100.00
26489;BME280;14169;43.684;10.484;2022-12-18T10:20:33;103025.72;;;17.33;100.00
26489;BME280;14169;43.684;10.484;2022-12-18T10:23:26;103025.22;;;17.54;100.00
26489;BME280;14169;43.684;10.484;2022-12-18T10:26:06;103028.22;;;17.39;100.00
26489;BME280;14169;43.684;10.484;2022-12-18T10:28:35;103033.09;;;17.55;100.00
26489;BME280;14169;43.684;10.484;2022-12-18T10:31:01;103025.28;;;17.51;100.00
26489;BME280;14169;43.684;10.484;2022-12-18T10:33:31;103028.78;;;17.51;100.00
26489;BME280;14169;43.684;10.484;2022-12-18T10:35:58;103027.81;;;17.55;100.00
26489;BME280;14169;43.684;10.484;2022-12-18T10:38:26;103019.91;;;17.55;100.00
26489;BME280;14169;43.684;10.484;2022-12-18T10:43:46;103018.38;;;17.81;100.00
26489;BME280;14169;43.684;10.484;2022-12-18T10:46:12;103010.59;;;18.10;100.00
26489;BME280;14169;43.684;10.484;2022-12-18T10:51:31;103027.16;;;18.15;100.00
26489;BME280;14169;43.684;10.484;2022-12-18T10:56:29;103026.75;;;18.62;100.00
26489;BME280;14169;43.684;10.484;2022-12-18T10:59:03;103017.19;;;18.87;100.00
26489;BME280;14169;43.684;10.484;2022-12-18T11:01:54;103015.84;;;18.74;100.00
26489;BME280;14169;43.684;10.484;2022-12-18T11:04:23;103017.47;;;18.78;100.00
26489;BME280;14169;43.684;10.484;2022-12-18T11:07:08;103016.13;;;18.93;100.00
26489;BME280;14169;43.684;10.484;2022-12-18T11:09:37;103008.69;;;19.05;100.00
26489;BME280;14169;43.684;10.484;2022-12-18T11:12:15;103010.03;;;18.62;95.76
26489;BME280;14169;43.684;10.484;2022-12-18T11:17:24;103028.19;;;18.09;93.58
26489;BME280;14169;43.684;10.484;2022-12-18T11:19:55;103016.81;;;18.07;94.96
26489;BME280;14169;43.684;10.484;2022-12-18T11:22:29;103022.78;;;17.82;95.57
26489;BME280;14169;43.684;10.484;2022-12-18T11:27:38;103022.09;;;18.07;98.82
26489;BME280;14169;43.684;10.484;2022-12-18T11:38:01;103025.13;;;18.57;100.00
26489;BME280;14169;43.684;10.484;2022-12-18T11:40:36;103016.78;;;18.72;98.63
26489;BME280;14169;43.684;10.484;2022-12-18T11:45:53;103021.16;;;19.02;96.77
26489;BME280;14169;43.684;10.484;2022-12-18T11:48:27;103021.56;;;19.17;94.44
26489;BME280;14169;43.684;10.484;2022-12-18T11:50:57;103014.28;;;19.52;92.88
26489;BME280;14169;43.684;10.484;2022-12-18T11:53:25;103019.41;;;19.56;90.44
26489;BME280;14169;43.684;10.484;2022-12-18T12:02:01;103012.75;;;19.71;87.79
26489;BME280;14169;43.684;10.484;2022-12-18T12:05:21;103014.88;;;19.86;84.78
26489;BME280;14169;43.684;10.484;2022-12-18T12:39:55;103012.97;;;20.86;66.54
26489;BME280;14169;43.684;10.484;2022-12-18T12:45:16;103010.88;;;20.73;67.08
26489;BME280;14169;43.684;10.484;2022-12-18T12:47:45;103006.16;;;20.56;66.13
26489;BME280;14169;43.684;10.484;2022-12-18T12:50:16;103005.94;;;20.62;68.00
26489;BME280;14169;43.684;10.484;2022-12-18T12:52:46;103008.56;;;20.87;67.40
26489;BME280;14169;43.684;10.484;2022-12-18T12:55:24;103010.78;;;20.76;65.33
26489;BME280;14169;43.684;10.484;2022-12-18T12:58:02;103004.56;;;20.98;67.64
26489;BME280;14169;43.684;10.484;2022-12-18T13:00:46;103004.56;;;21.20;66.68
26489;BME280;14169;43.684;10.484;2022-12-18T13:05:54;103001.78;;;21.66;62.67
26489;BME280;14169;43.684;10.484;2022-12-18T13:08:25;102997.69;;;21.59;62.28
26489;BME280;14169;43.684;10.484;2022-12-18T13:10:52;103001.25;;;21.37;61.44
26489;BME280;14169;43.684;10.484;2022-12-18T13:13:58;103003.28;;;21.30;61.57
26489;BME280;14169;43.684;10.484;2022-12-18T13:16:25;102997.53;;;21.41;61.60
26489;BME280;14169;43.684;10.484;2022-12-18T13:18:56;103003.56;;;21.44;64.24
26489;BME280;14169;43.684;10.484;2022-12-18T13:21:32;103003.25;;;21.53;62.54
26489;BME280;14169;43.684;10.484;2022-12-18T13:24:21;103008.59;;;21.94;63.41
26489;BME280;14169;43.684;10.484;2022-12-18T13:26:48;103003.75;;;22.03;62.29
26489;BME280;14169;43.684;10.484;2022-12-18T13:29:43;102999.31;;;22.04;60.87
26489;BME280;14169;43.684;10.484;2022-12-18T13:32:25;103002.78;;;21.84;59.40
26489;BME280;14169;43.684;10.484;2022-12-18T13:37:54;102997.56;;;22.03;61.11
26489;BME280;14169;43.684;10.484;2022-12-18T13:43:23;102996.91;;;21.98;59.53
26489;BME280;14169;43.684;10.484;2022-12-18T13:48:34;103000.56;;;22.35;60.06
26489;BME280;14169;43.684;10.484;2022-12-18T13:51:07;102997.16;;;22.32;58.97
26489;BME280;14169;43.684;10.484;2022-12-18T13:53:38;102996.03;;;22.17;58.92
26489;BME280;14169;43.684;10.484;2022-12-18T13:56:07;102994.88;;;22.43;60.54
26489;BME280;14169;43.684;10.484;2022-12-18T13:58:32;102997.56;;;22.23;57.83
26489;BME280;14169;43.684;10.484;2022-12-18T14:00:58;103001.63;;;22.11;60.85
26489;BME280;14169;43.684;10.484;2022-12-18T14:03:27;103005.47;;;22.24;60.69
26489;BME280;14169;43.684;10.484;2022-12-18T14:06:01;102996.63;;;22.24;59.64
26489;BME280;14169;43.684;10.484;2022-12-18T14:08:33;103008.41;;;22.57;61.21
26489;BME280;14169;43.684;10.484;2022-12-18T14:10:59;103002.63;;;22.29;56.80
26489;BME280;14169;43.684;10.484;2022-12-18T14:13:36;102995.34;;;22.71;58.70
26489;BME280;14169;43.684;10.484;2022-12-18T14:16:04;102998.22;;;22.85;57.33
26489;BME280;14169;43.684;10.484;2022-12-18T14:18:53;103010.28;;;22.55;57.52
26489;BME280;14169;43.684;10.484;2022-12-18T14:21:23;103010.91;;;22.41;58.32
26489;BME280;14169;43.684;10.484;2022-12-18T14:26:34;102999.69;;;21.95;59.46
26489;BME280;14169;43.684;10.484;2022-12-18T14:29:14;102997.75;;;21.98;61.39
26489;BME280;14169;43.684;10.484;2022-12-18T14:31:43;102995.16;;;21.76;60.36
26489;BME280;14169;43.684;10.484;2022-12-18T14:34:15;102993.19;;;21.40;61.54
26489;BME280;14169;43.684;10.484;2022-12-18T14:36:41;102991.03;;;21.49;64.34